createdAt,value
2018-12-16T00:00:49.698Z,79.78
2018-12-16T00:01:49.725Z,79.78
2018-12-16T00:02:49.676Z,80.02
2018-12-16T00:03:49.664Z,80.20
2018-12-16T00:04:50.216Z,79.68
2018-12-16T00:05:49.643Z,79.71
2018-12-16T00:06:49.643Z,79.57
2018-12-16T00:07:49.620Z,79.57
2018-12-16T00:08:49.612Z,80.20
2018-12-16T00:09:49.599Z,80.20
2018-12-16T00:10:49.589Z,79.71
2018-12-16T00:11:49.588Z,79.57
2018-12-16T00:12:49.566Z,79.61
2018-12-16T00:13:49.555Z,79.61
2018-12-16T00:14:49.546Z,79.88
2018-12-16T00:15:49.532Z,79.47
2018-12-16T00:16:50.076Z,79.29
2018-12-16T00:17:49.510Z,79.61
2018-12-16T00:18:49.503Z,79.61
2018-12-16T00:19:49.490Z,79.82
2018-12-16T00:20:49.478Z,79.88
2018-12-16T00:21:49.476Z,78.94
2018-12-16T00:22:49.579Z,79.47
2018-12-16T00:23:49.445Z,79.26
2018-12-16T00:24:49.434Z,79.57
2018-12-16T00:25:49.423Z,79.71
2018-12-16T00:26:49.436Z,79.71
2018-12-16T00:27:49.400Z,79.50
2018-12-16T00:28:49.391Z,79.50
2018-12-16T00:29:49.379Z,79.05
2018-12-16T00:30:49.369Z,79.36
2018-12-16T00:31:49.367Z,79.05
2018-12-16T00:32:49.346Z,79.19
2018-12-16T00:33:49.343Z,80.02
2018-12-16T00:34:49.326Z,79.61
2018-12-16T00:35:49.313Z,79.82
2018-12-16T00:36:49.313Z,79.57
2018-12-16T00:37:49.292Z,79.57
2018-12-16T00:38:49.284Z,79.78
2018-12-16T00:39:49.271Z,79.15
2018-12-16T00:40:49.259Z,79.57
2018-12-16T00:41:49.263Z,78.77
2018-12-16T00:42:49.237Z,78.94
2018-12-16T00:43:49.226Z,78.67
2018-12-16T00:44:49.217Z,78.77
2018-12-16T00:45:49.206Z,78.63
2018-12-16T00:46:49.204Z,78.67
2018-12-16T00:47:49.194Z,78.53
2018-12-16T00:48:49.173Z,78.67
2018-12-16T00:49:49.162Z,78.46
2018-12-16T00:50:49.152Z,78.53
2018-12-16T00:51:49.150Z,78.77
2018-12-16T00:52:49.128Z,77.90
2018-12-16T00:53:49.119Z,78.67
2018-12-16T00:54:49.107Z,78.77
2018-12-16T00:55:49.096Z,77.83
2018-12-16T00:56:49.104Z,76.89
2018-12-16T00:57:49.073Z,77.10
2018-12-16T00:58:49.066Z,77.31
2018-12-16T00:59:49.053Z,77.51
2018-12-16T01:00:49.042Z,77.51
2018-12-16T01:01:49.046Z,77.41
2018-12-16T01:02:49.021Z,77.83
2018-12-16T01:03:49.009Z,78.04
2018-12-16T01:04:48.998Z,77.51
2018-12-16T01:05:48.987Z,77.62
2018-12-16T01:06:48.988Z,77.51
2018-12-16T01:07:48.963Z,77.31
2018-12-16T01:08:48.954Z,77.31
2018-12-16T01:09:48.944Z,77.10
2018-12-16T01:10:48.933Z,77.31
2018-12-16T01:11:48.932Z,76.37
2018-12-16T01:12:48.910Z,76.79
2018-12-16T01:13:48.902Z,76.96
2018-12-16T01:14:48.888Z,76.68
2018-12-16T01:15:48.878Z,76.26
2018-12-16T01:16:48.881Z,76.12
2018-12-16T01:17:48.856Z,76.12
2018-12-16T01:18:48.845Z,76.06
2018-12-16T01:19:48.839Z,75.92
2018-12-16T01:20:48.832Z,75.92
2018-12-16T01:21:49.003Z,74.80
2018-12-16T01:22:48.807Z,75.63
2018-12-16T01:23:48.790Z,75.63
2018-12-16T01:24:48.781Z,75.32
2018-12-16T01:25:48.769Z,75.53
2018-12-16T01:26:48.759Z,75.29
2018-12-16T01:27:48.758Z,75.63
2018-12-16T01:28:48.736Z,74.91
2018-12-16T01:29:48.724Z,74.38
2018-12-16T01:30:48.718Z,74.91
2018-12-16T01:31:48.703Z,75.22
2018-12-16T01:32:48.705Z,74.59
2018-12-16T01:33:48.681Z,74.38
2018-12-16T01:34:48.670Z,74.07
2018-12-16T01:35:48.662Z,74.07
2018-12-16T01:36:48.649Z,74.18
2018-12-16T01:37:48.648Z,74.28
2018-12-16T01:38:48.625Z,74.38
2018-12-16T01:39:48.615Z,74.07
2018-12-16T01:40:48.606Z,74.07
2018-12-16T01:41:48.595Z,73.65
2018-12-16T01:42:48.595Z,72.92
2018-12-16T01:43:48.571Z,72.92
2018-12-16T01:44:48.562Z,73.65
2018-12-16T01:45:48.555Z,72.81
2018-12-16T01:46:48.538Z,72.61
2018-12-16T01:47:48.539Z,73.02
2018-12-16T01:48:48.517Z,72.81
2018-12-16T01:49:48.505Z,72.92
2018-12-16T01:50:48.497Z,72.50
2018-12-16T01:51:48.484Z,72.81
2018-12-16T01:52:58.593Z,72.50
2018-12-16T01:53:48.462Z,72.71
2018-12-16T01:54:48.450Z,72.61
2018-12-16T01:55:48.440Z,72.40
2018-12-16T01:56:48.433Z,71.98
2018-12-16T01:57:48.438Z,71.88
2018-12-16T01:58:48.412Z,72.50
2018-12-16T01:59:48.396Z,71.98
2018-12-16T02:00:48.385Z,71.67
2018-12-16T02:01:48.375Z,71.77
2018-12-16T02:02:48.373Z,71.67
2018-12-16T02:03:48.355Z,71.98
2018-12-16T02:04:48.341Z,71.70
2018-12-16T02:05:48.330Z,71.67
2018-12-16T02:06:48.320Z,71.49
2018-12-16T02:07:48.321Z,71.49
2018-12-16T02:08:48.299Z,71.49
2018-12-16T02:09:48.287Z,71.04
2018-12-16T02:10:48.276Z,71.04
2018-12-16T02:11:48.265Z,71.18
2018-12-16T02:12:48.265Z,71.28
2018-12-16T02:13:48.243Z,71.46
2018-12-16T02:14:48.233Z,71.25
2018-12-16T02:15:48.225Z,71.25
2018-12-16T02:16:48.211Z,71.14
2018-12-16T02:17:48.210Z,70.86
2018-12-16T02:18:48.189Z,70.76
2018-12-16T02:19:48.178Z,70.65
2018-12-16T02:20:55.194Z,71.28
2018-12-16T02:21:48.157Z,70.20
2018-12-16T02:22:48.156Z,69.71
2018-12-16T02:23:48.135Z,70.13
2018-12-16T02:24:48.124Z,70.13
2018-12-16T02:25:48.112Z,69.92
2018-12-16T02:26:48.100Z,69.71
2018-12-16T02:27:48.101Z,69.71
2018-12-16T02:28:48.079Z,69.79
2018-12-16T02:29:48.069Z,69.19
2018-12-16T02:30:48.058Z,69.29
2018-12-16T02:31:48.155Z,69.47
2018-12-16T02:32:48.048Z,68.35
2018-12-16T02:33:48.025Z,68.25
2018-12-16T02:34:48.013Z,68.25
2018-12-16T02:35:48.007Z,67.94
2018-12-16T02:36:47.993Z,67.69
2018-12-16T02:37:47.995Z,67.21
2018-12-16T02:38:47.972Z,67.41
2018-12-16T02:39:47.962Z,67.21
2018-12-16T02:40:47.949Z,66.89
2018-12-16T02:41:47.937Z,66.58
2018-12-16T02:42:47.940Z,66.68
2018-12-16T02:43:47.917Z,66.68
2018-12-16T02:44:47.905Z,66.27
2018-12-16T02:45:47.895Z,66.24
2018-12-16T02:46:47.885Z,65.53
2018-12-16T02:47:47.884Z,65.33
2018-12-16T02:48:47.867Z,65.11
2018-12-16T02:49:47.851Z,64.59
2018-12-16T02:50:47.842Z,65.81
2018-12-16T02:51:47.833Z,64.90
2018-12-16T02:52:47.841Z,63.73
2018-12-16T02:53:47.806Z,64.70
2018-12-16T02:54:47.797Z,63.86
2018-12-16T02:55:47.795Z,64.39
2018-12-16T02:56:47.774Z,63.31
2018-12-16T02:57:47.764Z,60.17
2018-12-16T02:58:47.766Z,59.03
2018-12-16T02:59:47.742Z,59.13
2018-12-16T03:00:47.730Z,59.13
2018-12-16T03:01:47.720Z,58.40
2018-12-16T03:02:47.709Z,59.55
2018-12-16T03:03:47.714Z,60.07
2018-12-16T03:04:47.690Z,59.76
2018-12-16T03:05:47.680Z,60.17
2018-12-16T03:06:47.675Z,59.97
2018-12-16T03:07:47.693Z,60.28
2018-12-16T03:08:47.672Z,59.97
2018-12-16T03:09:47.654Z,59.97
2018-12-16T03:10:47.639Z,61.01
2018-12-16T03:11:47.632Z,60.38
2018-12-16T03:12:47.620Z,60.36
2018-12-16T03:13:47.628Z,59.97
2018-12-16T03:14:47.601Z,60.07
2018-12-16T03:15:47.607Z,60.38
2018-12-16T03:16:47.626Z,60.59
2018-12-16T03:17:47.586Z,61.01
2018-12-16T03:18:47.569Z,60.93
2018-12-16T03:19:47.571Z,61.85
2018-12-16T03:20:47.581Z,60.38
2018-12-16T03:21:47.512Z,59.58
2018-12-16T03:22:47.530Z,59.89
2018-12-16T03:23:47.517Z,58.95
2018-12-16T03:24:47.511Z,59.16
2018-12-16T03:25:47.483Z,59.13
2018-12-16T03:26:47.486Z,58.92
2018-12-16T03:27:47.459Z,59.13
2018-12-16T03:28:47.456Z,59.47
2018-12-16T03:29:47.436Z,59.34
2018-12-16T03:30:47.538Z,59.55
2018-12-16T03:31:47.411Z,59.65
2018-12-16T03:32:47.427Z,59.55
2018-12-16T03:33:47.396Z,58.50
2018-12-16T03:34:47.379Z,59.65
2018-12-16T03:35:47.379Z,59.03
2018-12-16T03:36:47.398Z,59.23
2018-12-16T03:37:47.366Z,59.13
2018-12-16T03:38:47.346Z,59.97
2018-12-16T03:39:47.343Z,59.76
2018-12-16T03:40:47.314Z,59.97
2018-12-16T03:41:47.311Z,59.86
2018-12-16T03:42:47.296Z,60.38
2018-12-16T03:43:47.288Z,60.28
2018-12-16T03:44:47.289Z,60.28
2018-12-16T03:45:47.272Z,60.28
2018-12-16T03:46:47.255Z,60.38
2018-12-16T03:47:47.255Z,61.25
2018-12-16T03:48:47.233Z,61.56
2018-12-16T03:49:47.219Z,61.98
2018-12-16T03:50:47.207Z,61.98
2018-12-16T03:51:47.184Z,62.71
2018-12-16T03:52:47.198Z,62.16
2018-12-16T03:53:47.181Z,64.39
2018-12-16T03:54:47.176Z,64.39
2018-12-16T03:55:47.152Z,65.01
2018-12-16T03:56:47.136Z,64.80
2018-12-16T03:57:47.132Z,65.33
2018-12-16T03:58:47.152Z,65.22
2018-12-16T03:59:47.116Z,65.22
2018-12-16T04:00:47.199Z,65.84
2018-12-16T04:01:47.102Z,65.84
2018-12-16T04:02:47.084Z,66.16
2018-12-16T04:03:47.077Z,66.27
2018-12-16T04:04:47.056Z,66.16
2018-12-16T04:05:47.060Z,66.27
2018-12-16T04:06:47.050Z,66.47
2018-12-16T04:07:47.021Z,66.58
2018-12-16T04:08:47.020Z,67.52
2018-12-16T04:09:47.022Z,67.52
2018-12-16T04:10:47.020Z,68.18
2018-12-16T04:11:46.974Z,68.15
2018-12-16T04:12:46.963Z,67.94
2018-12-16T04:13:46.967Z,67.94
2018-12-16T04:14:46.968Z,69.12
2018-12-16T04:15:46.953Z,69.33
2018-12-16T04:16:46.948Z,69.64
2018-12-16T04:17:46.910Z,69.40
2018-12-16T04:18:46.967Z,69.82
2018-12-16T04:19:46.891Z,69.85
2018-12-16T04:20:46.897Z,69.61
2018-12-16T04:21:46.869Z,69.74
2018-12-16T04:22:46.864Z,70.17
2018-12-16T04:23:46.844Z,70.03
2018-12-16T04:24:46.850Z,70.34
2018-12-16T04:25:46.857Z,70.03
2018-12-16T04:26:46.820Z,70.24
2018-12-16T04:27:46.798Z,70.37
2018-12-16T04:28:46.785Z,70.37
2018-12-16T04:29:46.821Z,70.17
2018-12-16T04:30:46.763Z,70.27
2018-12-16T04:33:13.402Z,70.90
2018-12-16T04:34:13.398Z,71.42
2018-12-16T04:35:13.373Z,71.21
2018-12-16T04:36:13.361Z,71.24
2018-12-16T04:37:13.353Z,71.21
2018-12-16T04:38:13.374Z,70.09
2018-12-16T04:39:13.341Z,70.27
2018-12-16T04:40:13.319Z,70.79
2018-12-16T04:41:13.311Z,71.11
2018-12-16T04:43:35.245Z,70.37
2018-12-16T04:44:35.002Z,70.17
2018-12-16T04:45:34.980Z,70.37
2018-12-16T04:46:34.972Z,70.90
2018-12-16T04:47:34.960Z,70.90
2018-12-16T04:48:34.949Z,70.79
2018-12-16T04:49:34.951Z,70.68
2018-12-16T04:50:34.928Z,70.90
2018-12-16T04:51:34.920Z,70.97
2018-12-16T04:52:34.904Z,70.17
2018-12-16T04:53:37.082Z,70.27
2018-12-16T04:54:34.895Z,70.06
2018-12-16T04:55:34.871Z,69.85
2018-12-16T04:56:34.862Z,69.85
2018-12-16T04:57:34.851Z,69.64
2018-12-16T04:58:34.839Z,69.64
2018-12-16T04:59:34.843Z,70.20
2018-12-16T05:00:34.819Z,70.27
2018-12-16T05:01:34.805Z,70.27
2018-12-16T05:02:34.790Z,70.37
2018-12-16T05:03:34.787Z,70.27
2018-12-16T05:04:34.789Z,69.85
2018-12-16T05:05:34.762Z,70.06
2018-12-16T05:06:34.750Z,70.90
2018-12-16T05:07:34.740Z,70.27
2018-12-16T05:08:34.729Z,69.85
2018-12-16T05:09:34.730Z,69.95
2018-12-16T05:10:34.724Z,69.64
2018-12-16T05:11:34.696Z,68.18
2018-12-16T05:12:34.689Z,69.40
2018-12-16T05:13:34.679Z,69.64
2018-12-16T05:14:34.723Z,68.67
2018-12-16T05:15:34.708Z,67.86
2018-12-16T05:16:34.674Z,67.76
2018-12-16T05:17:34.661Z,67.97
2018-12-16T05:18:34.642Z,68.18
2018-12-16T05:19:34.640Z,68.15
2018-12-16T05:20:34.696Z,68.70
2018-12-16T05:21:34.608Z,67.97
2018-12-16T05:22:34.596Z,67.97
2018-12-16T05:23:34.609Z,67.44
2018-12-16T05:24:34.644Z,67.03
2018-12-16T05:25:34.564Z,67.97
2018-12-16T05:26:42.549Z,68.07
2018-12-16T05:27:44.397Z,69.43
2018-12-16T05:29:54.242Z,69.51
2018-12-16T05:33:23.452Z,70.24
2018-12-16T05:34:23.432Z,69.61
2018-12-16T05:35:23.435Z,69.82
2018-12-16T05:36:23.416Z,69.71
2018-12-16T05:37:23.399Z,70.03
2018-12-16T05:38:23.387Z,69.92
2018-12-16T05:39:23.377Z,69.33
2018-12-16T05:40:23.378Z,70.37
2018-12-16T05:41:23.360Z,70.17
2018-12-16T05:42:23.343Z,69.85
2018-12-16T05:43:23.332Z,71.00
2018-12-16T05:44:23.322Z,71.52
2018-12-16T05:45:23.322Z,71.31
2018-12-16T05:46:23.299Z,71.42
2018-12-16T05:47:23.291Z,71.73
2018-12-16T05:48:23.279Z,71.18
2018-12-16T05:49:23.266Z,71.21
2018-12-16T05:50:23.267Z,71.00
2018-12-16T05:52:44.951Z,71.00
2018-12-16T05:53:54.742Z,69.85
2018-12-16T05:56:13.183Z,70.76
2018-12-16T05:57:20.219Z,71.39
2018-12-16T05:58:21.222Z,71.49
2018-12-16T05:59:20.199Z,71.52
2018-12-16T06:00:24.453Z,71.31
2018-12-16T06:01:22.651Z,71.21
2018-12-16T06:02:25.117Z,70.58
2018-12-16T06:03:25.429Z,70.68
2018-12-16T06:04:26.092Z,70.06
2018-12-16T06:05:13.084Z,70.79
2018-12-16T06:06:13.058Z,70.34
2018-12-16T06:07:13.123Z,70.13
2018-12-16T06:08:13.038Z,70.76
2018-12-16T06:09:20.065Z,70.13
2018-12-16T06:10:13.030Z,70.06
2018-12-16T06:11:13.004Z,70.03
2018-12-16T06:12:12.992Z,70.17
2018-12-16T06:13:24.013Z,70.68
2018-12-16T06:14:25.011Z,70.90
2018-12-16T06:15:12.975Z,70.06
2018-12-16T06:16:12.951Z,70.58
2018-12-16T06:17:24.981Z,69.78
2018-12-16T06:18:12.924Z,70.17
2018-12-16T06:19:24.952Z,69.64
2018-12-16T06:20:12.916Z,69.64
2018-12-16T06:21:12.892Z,69.88
2018-12-16T06:22:12.881Z,69.88
2018-12-16T06:23:12.870Z,69.85
2018-12-16T06:24:12.860Z,70.09
2018-12-16T06:25:12.863Z,69.74
2018-12-16T06:26:25.164Z,68.21
2018-12-16T06:27:12.826Z,67.76
2018-12-16T06:28:12.814Z,67.97
2018-12-16T06:29:12.803Z,68.28
2018-12-16T06:30:12.942Z,68.60
2018-12-16T06:31:12.781Z,69.33
2018-12-16T06:32:12.772Z,69.46
2018-12-16T06:33:25.763Z,69.64
2018-12-16T06:34:12.749Z,69.54
2018-12-16T06:35:12.782Z,69.33
2018-12-16T06:36:12.726Z,69.54
2018-12-16T06:37:12.716Z,70.06
2018-12-16T06:38:12.707Z,69.95
2018-12-16T06:39:12.696Z,69.33
2018-12-16T06:40:12.682Z,70.09
2018-12-16T06:41:12.681Z,69.12
2018-12-16T06:42:12.661Z,69.95
2018-12-16T06:43:12.649Z,69.85
2018-12-16T06:44:12.639Z,69.85
2018-12-16T06:45:12.627Z,69.88
2018-12-16T06:46:12.627Z,70.20
2018-12-16T06:47:12.606Z,70.30
2018-12-16T06:48:12.593Z,70.30
2018-12-16T06:49:12.582Z,69.67
2018-12-16T06:50:12.572Z,70.93
2018-12-16T06:51:12.575Z,70.72
2018-12-16T06:52:12.549Z,70.83
2018-12-16T06:53:12.538Z,70.93
2018-12-16T06:54:12.529Z,70.83
2018-12-16T06:55:12.515Z,70.61
2018-12-16T06:56:12.517Z,69.67
2018-12-16T06:57:12.494Z,69.99
2018-12-16T06:58:12.483Z,69.95
2018-12-16T06:59:12.475Z,69.78
2018-12-16T07:00:12.475Z,69.22
2018-12-16T07:01:12.462Z,68.00
2018-12-16T07:02:12.438Z,67.03
2018-12-16T07:03:12.429Z,65.91
2018-12-16T07:04:12.416Z,65.91
2018-12-16T07:05:25.429Z,65.77
2018-12-16T07:06:12.410Z,65.80
2018-12-16T07:07:12.383Z,66.64
2018-12-16T07:08:12.373Z,67.27
2018-12-16T07:09:26.878Z,67.37
2018-12-16T07:10:12.350Z,67.90
2018-12-16T07:11:12.351Z,68.21
2018-12-16T07:12:12.331Z,68.52
2018-12-16T07:13:12.317Z,68.00
2018-12-16T07:14:12.306Z,68.31
2018-12-16T07:15:12.295Z,68.94
2018-12-16T07:16:12.328Z,68.73
2018-12-16T07:17:12.276Z,69.46
2018-12-16T07:18:12.263Z,68.73
2018-12-16T07:19:12.259Z,69.04
2018-12-16T07:20:12.254Z,69.36
2018-12-16T07:21:12.238Z,69.36
2018-12-16T07:22:12.217Z,68.80
2018-12-16T07:23:12.209Z,68.91
2018-12-16T07:24:19.219Z,68.91
2018-12-16T07:25:12.185Z,68.80
2018-12-16T07:26:12.185Z,68.21
2018-12-16T07:27:12.200Z,68.07
2018-12-16T07:28:12.151Z,67.97
2018-12-16T07:29:12.141Z,68.28
2018-12-16T07:30:12.131Z,67.86
2018-12-16T07:31:12.137Z,67.24
2018-12-16T07:32:12.107Z,67.27
2018-12-16T07:33:12.099Z,67.24
2018-12-16T07:34:12.084Z,66.22
2018-12-16T07:35:12.114Z,64.44
2018-12-16T07:36:12.076Z,63.68
2018-12-16T07:37:18.785Z,63.40
2018-12-16T07:38:13.039Z,63.18
2018-12-16T07:39:12.062Z,64.44
2018-12-16T07:40:12.018Z,64.44
2018-12-16T07:41:12.059Z,64.00
2018-12-16T07:42:11.998Z,62.24
2018-12-16T07:43:11.986Z,63.50
2018-12-16T07:44:11.999Z,64.44
2018-12-16T07:45:11.985Z,64.51
2018-12-16T07:46:11.968Z,64.51
2018-12-16T07:47:11.963Z,63.79
2018-12-16T07:48:11.930Z,64.44
2018-12-16T07:49:11.962Z,64.41
2018-12-16T07:50:11.910Z,64.03
2018-12-16T07:51:11.907Z,63.89
2018-12-16T07:52:11.886Z,64.31
2018-12-16T07:53:11.876Z,64.20
2018-12-16T07:54:16.100Z,63.79
2018-12-16T07:55:11.851Z,63.26
2018-12-16T07:56:11.852Z,63.79
2018-12-16T07:57:11.831Z,62.43
2018-12-16T07:58:11.826Z,62.22
2018-12-16T07:59:11.846Z,61.90
2018-12-16T08:00:11.797Z,62.11
2018-12-16T08:01:11.834Z,62.56
2018-12-16T08:02:11.780Z,61.83
2018-12-16T08:03:11.765Z,62.53
2018-12-16T08:04:11.765Z,63.16
2018-12-16T08:05:11.787Z,62.74
2018-12-16T08:06:11.764Z,63.37
2018-12-16T08:07:11.720Z,63.47
2018-12-16T08:08:11.712Z,63.68
2018-12-16T08:09:11.702Z,63.57
2018-12-16T08:10:11.698Z,63.68
2018-12-16T08:11:11.678Z,63.81
2018-12-16T08:12:11.677Z,64.10
2018-12-16T08:13:11.654Z,64.10
2018-12-16T08:14:11.643Z,63.89
2018-12-16T08:15:11.632Z,63.60
2018-12-16T08:16:11.623Z,62.56
2018-12-16T08:17:11.623Z,62.53
2018-12-16T08:18:18.629Z,62.32
2018-12-16T08:19:11.588Z,62.43
2018-12-16T08:20:11.576Z,62.43
2018-12-16T08:21:11.579Z,62.32
2018-12-16T08:22:11.569Z,62.43
2018-12-16T08:23:11.544Z,62.95
2018-12-16T08:24:11.534Z,62.43
2018-12-16T08:25:11.523Z,62.53
2018-12-16T08:26:12.050Z,62.22
2018-12-16T08:27:11.510Z,62.63
2018-12-16T08:28:11.489Z,62.53
2018-12-16T08:29:11.478Z,62.84
2018-12-16T08:30:11.470Z,62.43
2018-12-16T08:31:11.456Z,62.53
2018-12-16T08:32:11.458Z,61.49
2018-12-16T08:33:11.447Z,61.38
2018-12-16T08:34:11.422Z,62.22
2018-12-16T08:35:11.412Z,62.84
2018-12-16T08:36:11.401Z,62.53
2018-12-16T08:37:11.402Z,62.32
2018-12-16T08:38:11.383Z,62.53
2018-12-16T08:39:11.371Z,62.43
2018-12-16T08:40:11.361Z,62.43
2018-12-16T08:41:11.346Z,62.92
2018-12-16T08:42:11.345Z,62.84
2018-12-16T08:43:11.325Z,63.06
2018-12-16T08:44:11.313Z,62.29
2018-12-16T08:45:11.304Z,61.80
2018-12-16T08:46:11.291Z,61.80
2018-12-16T08:47:11.291Z,61.80
2018-12-16T08:48:11.269Z,62.63
2018-12-16T08:49:11.258Z,62.63
2018-12-16T08:50:11.247Z,62.43
2018-12-16T08:51:11.236Z,62.95
2018-12-16T08:52:11.238Z,62.43
2018-12-16T08:53:11.214Z,62.50
2018-12-16T08:54:11.202Z,62.43
2018-12-16T08:55:11.191Z,62.19
2018-12-16T08:56:11.180Z,62.22
2018-12-16T08:57:11.180Z,61.80
2018-12-16T08:58:11.159Z,61.61
2018-12-16T08:59:11.148Z,61.49
2018-12-16T09:00:11.141Z,62.01
2018-12-16T09:01:11.127Z,61.27
2018-12-16T09:02:11.124Z,62.43
2018-12-16T09:03:11.104Z,61.69
2018-12-16T09:04:11.093Z,61.90
2018-12-16T09:05:11.104Z,62.22
2018-12-16T09:06:11.074Z,62.63
2018-12-16T09:07:11.074Z,62.53
2018-12-16T09:08:11.047Z,62.40
2018-12-16T09:09:11.038Z,62.19
2018-12-16T09:10:11.027Z,62.50
2018-12-16T09:11:11.014Z,62.60
2018-12-16T09:12:11.020Z,62.40
2018-12-16T09:13:10.997Z,61.98
2018-12-16T09:14:11.059Z,61.15
2018-12-16T09:15:10.972Z,61.46
2018-12-16T09:16:10.963Z,60.83
2018-12-16T09:17:10.962Z,60.21
2018-12-16T09:18:10.937Z,60.62
2018-12-16T09:19:10.929Z,60.21
2018-12-16T09:20:10.917Z,60.54
2018-12-16T09:21:10.907Z,60.65
2018-12-16T09:22:18.070Z,60.44
2018-12-16T09:23:10.887Z,60.33
2018-12-16T09:24:10.873Z,60.13
2018-12-16T09:25:10.861Z,59.81
2018-12-16T09:26:10.850Z,60.31
2018-12-16T09:27:10.847Z,60.31
2018-12-16T09:28:10.830Z,60.41
2018-12-16T09:29:10.821Z,60.62
2018-12-16T09:30:10.808Z,59.89
2018-12-16T09:31:10.797Z,59.78
2018-12-16T09:32:10.797Z,59.78
2018-12-16T09:33:10.776Z,59.78
2018-12-16T09:34:10.763Z,59.47
2018-12-16T09:35:10.750Z,59.68
2018-12-16T09:36:10.740Z,59.81
2018-12-16T09:37:10.775Z,59.47
2018-12-16T09:38:10.719Z,59.68
2018-12-16T09:39:10.707Z,59.58
2018-12-16T09:40:10.696Z,59.78
2018-12-16T09:41:10.685Z,60.10
2018-12-16T09:42:10.675Z,59.89
2018-12-16T09:43:10.678Z,59.78
2018-12-16T09:44:10.653Z,59.78
2018-12-16T09:45:10.649Z,59.68
2018-12-16T09:46:10.632Z,60.52
2018-12-16T09:47:10.622Z,60.31
2018-12-16T09:48:10.619Z,59.16
2018-12-16T09:49:10.600Z,59.68
2018-12-16T09:50:10.588Z,59.70
2018-12-16T09:51:10.579Z,60.13
2018-12-16T09:52:10.565Z,59.99
2018-12-16T09:53:10.570Z,59.89
2018-12-16T09:54:10.543Z,59.89
2018-12-16T09:55:10.532Z,59.60
2018-12-16T09:56:10.521Z,59.68
2018-12-16T09:57:10.509Z,59.68
2018-12-16T09:58:10.511Z,59.16
2018-12-16T09:59:10.509Z,59.78
2018-12-16T10:00:10.475Z,59.26
2018-12-16T10:01:10.464Z,59.16
2018-12-16T10:02:10.453Z,59.16
2018-12-16T10:03:10.455Z,59.29
2018-12-16T10:04:10.433Z,58.56
2018-12-16T10:05:10.422Z,58.35
2018-12-16T10:06:10.409Z,58.87
2018-12-16T10:07:10.399Z,59.08
2018-12-16T10:08:10.391Z,59.29
2018-12-16T10:09:10.387Z,57.90
2018-12-16T10:10:10.365Z,58.22
2018-12-16T10:11:10.354Z,58.32
2018-12-16T10:12:10.342Z,57.80
2018-12-16T10:13:10.347Z,57.90
2018-12-16T10:14:10.321Z,58.19
2018-12-16T10:15:10.309Z,58.22
2018-12-16T10:16:10.301Z,58.32
2018-12-16T10:17:10.290Z,58.22
2018-12-16T10:18:10.282Z,58.84
2018-12-16T10:19:10.627Z,59.29
2018-12-16T10:20:10.268Z,59.29
2018-12-16T10:21:10.245Z,59.81
2018-12-16T10:22:10.231Z,59.50
2018-12-16T10:23:10.253Z,59.50
2018-12-16T10:24:10.209Z,59.70
2018-12-16T10:25:10.207Z,60.02
2018-12-16T10:26:10.186Z,60.02
2018-12-16T10:27:10.178Z,60.21
2018-12-16T10:28:20.126Z,60.21
2018-12-16T10:29:10.154Z,59.99
2018-12-16T10:30:10.143Z,59.92
2018-12-16T10:31:10.137Z,60.21
2018-12-16T10:32:10.121Z,59.99
2018-12-16T10:33:10.111Z,59.99
2018-12-16T10:34:10.116Z,60.23
2018-12-16T10:35:10.088Z,60.41
2018-12-16T10:36:10.177Z,60.21
2018-12-16T10:37:10.073Z,59.89
2018-12-16T10:38:10.055Z,60.44
2018-12-16T10:39:10.055Z,59.70
2018-12-16T10:40:10.031Z,60.44
2018-12-16T10:41:10.021Z,60.33
2018-12-16T10:42:10.016Z,59.81
2018-12-16T10:43:18.665Z,59.70
2018-12-16T10:44:17.715Z,59.39
2018-12-16T10:45:09.975Z,59.60
2018-12-16T10:46:09.967Z,59.68
2018-12-16T10:47:09.956Z,59.60
2018-12-16T10:48:09.950Z,59.08
2018-12-16T10:49:18.760Z,59.29
2018-12-16T10:50:09.926Z,58.97
2018-12-16T10:51:09.914Z,59.08
2018-12-16T10:52:09.911Z,59.53
2018-12-16T10:53:09.889Z,58.87
2018-12-16T10:54:09.879Z,59.29
2018-12-16T10:55:09.868Z,59.11
2018-12-16T10:56:09.865Z,59.53
2018-12-16T10:57:09.844Z,59.50
2018-12-16T10:58:09.832Z,59.50
2018-12-16T10:59:10.253Z,59.70
2018-12-16T11:00:09.816Z,59.70
2018-12-16T11:01:09.812Z,59.70
2018-12-16T11:02:09.788Z,59.81
2018-12-16T11:03:09.776Z,59.60
2018-12-16T11:04:09.776Z,60.02
2018-12-16T11:05:09.797Z,59.68
2018-12-16T11:06:10.713Z,60.10
2018-12-16T11:07:09.734Z,59.92
2018-12-16T11:08:09.721Z,60.13
2018-12-16T11:09:09.723Z,60.02
2018-12-16T11:10:09.701Z,60.23
2018-12-16T11:11:09.690Z,60.86
2018-12-16T11:12:09.680Z,60.65
2018-12-16T11:13:09.665Z,60.31
2018-12-16T11:14:09.661Z,60.31
2018-12-16T11:15:09.662Z,60.41
2018-12-16T11:16:09.636Z,60.52
2018-12-16T11:17:09.622Z,60.31
2018-12-16T11:18:09.616Z,60.10
2018-12-16T11:19:09.602Z,59.89
2018-12-16T11:20:09.593Z,60.31
2018-12-16T11:21:09.588Z,59.68
2018-12-16T11:22:09.567Z,59.60
2018-12-16T11:23:09.556Z,60.02
2018-12-16T11:24:09.547Z,59.89
2018-12-16T11:25:09.546Z,60.33
2018-12-16T11:26:09.520Z,60.02
2018-12-16T11:27:10.690Z,59.29
2018-12-16T11:28:09.510Z,59.70
2018-12-16T11:29:09.489Z,59.08
2018-12-16T11:30:09.490Z,58.45
2018-12-16T11:31:09.464Z,58.45
2018-12-16T11:32:09.463Z,59.19
2018-12-16T11:33:09.462Z,58.87
2018-12-16T11:34:09.434Z,58.24
2018-12-16T11:35:09.436Z,57.80
2018-12-16T11:36:09.415Z,58.24
2018-12-16T11:37:09.405Z,58.56
2018-12-16T11:38:09.393Z,58.74
2018-12-16T11:39:09.379Z,58.42
2018-12-16T11:40:09.383Z,58.42
2018-12-16T11:41:09.357Z,57.90
2018-12-16T11:42:09.350Z,58.32
2018-12-16T11:43:09.336Z,57.90
2018-12-16T11:44:09.325Z,57.90
2018-12-16T11:45:09.324Z,58.01
2018-12-16T11:46:09.302Z,58.11
2018-12-16T11:47:09.297Z,58.22
2018-12-16T11:48:09.281Z,56.65
2018-12-16T11:49:09.269Z,57.48
2018-12-16T11:50:09.266Z,56.75
2018-12-16T11:51:09.262Z,56.96
2018-12-16T11:52:09.234Z,56.54
2018-12-16T11:53:09.223Z,56.75
2018-12-16T11:54:09.212Z,56.65
2018-12-16T11:55:12.833Z,56.75
2018-12-16T11:56:09.192Z,56.65
2018-12-16T11:57:09.178Z,56.46
2018-12-16T11:58:09.186Z,56.78
2018-12-16T11:59:09.156Z,56.78
2018-12-16T12:00:16.779Z,57.09
2018-12-16T12:01:09.756Z,56.78
2018-12-16T12:02:09.124Z,56.99
2018-12-16T12:03:09.112Z,57.40
2018-12-16T12:04:09.105Z,57.30
2018-12-16T12:05:09.120Z,57.40
2018-12-16T12:06:09.080Z,56.67
2018-12-16T12:07:09.069Z,56.88
2018-12-16T12:08:09.060Z,56.99
2018-12-16T12:09:09.046Z,56.78
2018-12-16T12:10:09.038Z,56.49
2018-12-16T12:11:09.031Z,56.67
2018-12-16T12:12:09.026Z,57.72
2018-12-16T12:13:09.008Z,57.20
2018-12-16T12:14:08.991Z,56.99
2018-12-16T12:15:08.980Z,56.67
2018-12-16T12:16:08.983Z,56.78
2018-12-16T12:17:08.957Z,56.78
2018-12-16T12:18:08.974Z,56.67
2018-12-16T12:19:08.935Z,57.51
2018-12-16T12:20:08.924Z,56.86
2018-12-16T12:21:08.926Z,56.57
2018-12-16T12:22:08.915Z,57.30
2018-12-16T12:23:08.891Z,57.20
2018-12-16T12:24:08.893Z,57.72
2018-12-16T12:25:08.871Z,57.70
2018-12-16T12:26:08.871Z,57.30
2018-12-16T12:27:08.847Z,57.20
2018-12-16T12:28:08.835Z,58.24
2018-12-16T12:29:08.827Z,58.14
2018-12-16T12:30:08.820Z,58.45
2018-12-16T12:31:08.814Z,58.01
2018-12-16T12:32:08.792Z,57.28
2018-12-16T12:33:08.782Z,57.59
2018-12-16T12:34:08.773Z,57.17
2018-12-16T12:35:08.765Z,58.32
2018-12-16T12:36:08.758Z,58.22
2018-12-16T12:37:08.739Z,57.07
2018-12-16T12:38:08.725Z,56.96
2018-12-16T12:39:08.715Z,56.99
2018-12-16T12:40:08.707Z,57.20
2018-12-16T12:41:08.754Z,57.07
2018-12-16T12:42:08.681Z,56.65
2018-12-16T12:43:08.674Z,55.91
2018-12-16T12:44:08.658Z,56.23
2018-12-16T12:45:08.649Z,55.60
2018-12-16T12:46:08.637Z,55.29
2018-12-16T12:47:08.644Z,55.42
2018-12-16T12:48:08.614Z,55.19
2018-12-16T12:49:08.604Z,55.19
2018-12-16T12:50:08.592Z,55.40
2018-12-16T12:51:08.580Z,55.50
2018-12-16T12:52:08.580Z,55.29
2018-12-16T12:53:09.261Z,55.81
2018-12-16T12:54:08.550Z,55.89
2018-12-16T12:55:08.541Z,55.47
2018-12-16T12:56:08.526Z,55.71
2018-12-16T12:57:08.529Z,55.58
2018-12-16T12:58:08.535Z,55.37
2018-12-16T12:59:08.496Z,55.08
2018-12-16T13:00:08.492Z,56.13
2018-12-16T13:01:08.477Z,56.44
2018-12-16T13:02:08.780Z,55.71